createdAt,value
2022-11-21T00:01:25.973Z,26.60
2022-11-21T00:03:54.463Z,26.60
2022-11-21T00:06:22.662Z,26.60
2022-11-21T00:08:51.015Z,26.60
2022-11-21T00:11:19.427Z,26.60
2022-11-21T00:13:47.508Z,26.60
2022-11-21T00:16:16.887Z,26.50
2022-11-21T00:18:45.351Z,26.50
2022-11-21T00:21:16.447Z,26.50
2022-11-21T00:23:46.082Z,26.50
2022-11-21T00:26:15.695Z,26.50
2022-11-21T00:28:44.372Z,26.40
2022-11-21T00:31:23.864Z,26.40
2022-11-21T00:33:52.234Z,26.50
2022-11-21T00:36:20.372Z,26.40
2022-11-21T00:38:48.703Z,26.40
2022-11-21T00:41:16.937Z,26.50
2022-11-21T00:43:45.012Z,26.50
2022-11-21T00:46:13.315Z,26.50
2022-11-21T00:48:41.533Z,26.50
2022-11-21T00:51:09.713Z,26.60
2022-11-21T00:53:38.041Z,26.60
2022-11-21T00:56:06.359Z,26.60
2022-11-21T00:58:34.783Z,26.60
2022-11-21T01:01:09.596Z,26.60
2022-11-21T01:03:38.282Z,26.60
2022-11-21T01:06:09.214Z,26.60
2022-11-21T01:08:39.797Z,26.60
2022-11-21T01:11:14.474Z,26.60
2022-11-21T01:13:43.594Z,26.60
2022-11-21T01:16:15.400Z,26.50
2022-11-21T01:18:44.404Z,26.50
2022-11-21T01:21:19.419Z,26.50
2022-11-21T01:23:48.208Z,26.50
2022-11-21T01:26:27.628Z,26.50
2022-11-21T01:28:57.644Z,26.40
2022-11-21T01:31:30.709Z,26.40
2022-11-21T01:34:00.099Z,26.40
2022-11-21T01:36:31.398Z,26.30
2022-11-21T01:39:01.878Z,26.40
2022-11-21T01:41:38.939Z,26.30
2022-11-21T01:44:25.200Z,26.30
2022-11-21T01:46:54.192Z,26.20
2022-11-21T01:49:32.946Z,26.30
2022-11-21T01:52:04.309Z,26.30
2022-11-21T01:54:54.893Z,26.30
2022-11-21T01:57:52.223Z,26.30
2022-11-21T02:00:25.868Z,26.20
2022-11-21T02:02:57.258Z,26.20
2022-11-21T02:05:29.854Z,26.20
2022-11-21T02:08:03.062Z,26.10
2022-11-21T02:10:31.508Z,26.10
2022-11-21T02:13:00.582Z,26.10
2022-11-21T02:15:30.671Z,26.10
2022-11-21T02:17:59.014Z,26.10
2022-11-21T02:20:29.642Z,26.10
2022-11-21T02:23:00.689Z,26.00
2022-11-21T02:25:34.687Z,26.00
2022-11-21T02:28:08.652Z,26.00
2022-11-21T02:30:40.440Z,26.00
2022-11-21T02:33:09.730Z,25.90
2022-11-21T02:35:38.192Z,25.90
2022-11-21T02:38:17.457Z,26.00
2022-11-21T02:41:10.070Z,26.00
2022-11-21T02:43:53.519Z,26.00
2022-11-21T02:46:21.864Z,25.90
2022-11-21T02:48:50.162Z,25.90
2022-11-21T02:51:18.540Z,25.90
2022-11-21T02:53:46.760Z,25.90
2022-11-21T02:56:15.192Z,25.80
2022-11-21T02:58:44.141Z,25.80
2022-11-21T03:01:12.208Z,25.80
2022-11-21T03:03:40.620Z,25.80
2022-11-21T03:06:08.815Z,25.80
2022-11-21T03:08:37.030Z,25.80
2022-11-21T03:11:05.299Z,25.80
2022-11-21T03:13:33.424Z,25.80
2022-11-21T03:16:01.550Z,25.70
2022-11-21T03:18:29.866Z,25.80
2022-11-21T03:20:58.795Z,25.80
2022-11-21T03:23:27.115Z,25.70
2022-11-21T03:25:55.207Z,25.70
2022-11-21T03:28:23.387Z,25.70
2022-11-21T03:30:51.667Z,25.70
2022-11-21T03:33:19.886Z,25.70
2022-11-21T03:35:48.856Z,25.70
2022-11-21T03:38:17.172Z,25.70
2022-11-21T03:40:45.346Z,25.60
2022-11-21T03:43:13.531Z,25.60
2022-11-21T03:45:41.698Z,25.60
2022-11-21T03:48:09.806Z,25.50
2022-11-21T03:50:38.092Z,25.50
2022-11-21T03:53:06.279Z,25.50
2022-11-21T03:55:34.531Z,25.50
2022-11-21T03:58:03.011Z,25.50
2022-11-21T04:00:31.428Z,25.40
2022-11-21T04:02:59.707Z,25.40
2022-11-21T04:05:28.035Z,25.40
2022-11-21T04:07:56.595Z,25.40
2022-11-21T04:10:24.782Z,25.40
2022-11-21T04:12:52.988Z,25.40
2022-11-21T04:15:21.226Z,25.40
2022-11-21T04:17:49.414Z,25.40
2022-11-21T04:20:17.818Z,25.30
2022-11-21T04:22:46.120Z,25.40
2022-11-21T04:25:14.348Z,25.40
2022-11-21T04:27:42.629Z,25.40
2022-11-21T04:30:11.251Z,25.30
2022-11-21T04:32:39.670Z,25.30
2022-11-21T04:35:08.353Z,25.30
2022-11-21T04:37:39.705Z,25.20
2022-11-21T04:40:08.495Z,25.20
2022-11-21T04:42:36.763Z,25.20
2022-11-21T04:45:05.461Z,25.30
2022-11-21T04:47:33.580Z,25.30
2022-11-21T04:50:01.761Z,25.30
2022-11-21T04:52:29.895Z,25.40
2022-11-21T04:54:58.054Z,25.30
2022-11-21T04:57:28.496Z,25.30
2022-11-21T04:59:57.222Z,25.30
2022-11-21T05:02:25.856Z,25.30
2022-11-21T05:04:54.144Z,25.30
2022-11-21T05:07:22.494Z,25.30
2022-11-21T05:09:50.668Z,25.30
2022-11-21T05:12:19.007Z,25.30
2022-11-21T05:14:47.068Z,25.20
2022-11-21T05:17:15.505Z,25.30
2022-11-21T05:19:43.609Z,25.20
2022-11-21T05:22:11.983Z,25.20
2022-11-21T05:24:40.309Z,25.20
2022-11-21T05:27:08.486Z,25.20
2022-11-21T05:29:36.673Z,25.20
2022-11-21T05:32:05.012Z,25.10
2022-11-21T05:34:33.249Z,25.20
2022-11-21T05:37:01.961Z,25.20
2022-11-21T05:39:30.211Z,25.20
2022-11-21T05:42:02.683Z,25.20
2022-11-21T05:44:31.642Z,25.10
2022-11-21T05:46:59.848Z,25.20
2022-11-21T05:49:28.065Z,25.10
2022-11-21T05:51:56.364Z,25.10
2022-11-21T05:54:24.611Z,25.10
2022-11-21T05:56:52.614Z,25.10
2022-11-21T05:59:20.855Z,25.10
2022-11-21T06:01:49.062Z,25.10
2022-11-21T06:04:17.137Z,25.00
2022-11-21T06:06:45.481Z,25.00
2022-11-21T06:09:13.482Z,25.10
2022-11-21T06:11:41.625Z,25.10
2022-11-21T06:14:09.761Z,25.10
2022-11-21T06:16:37.962Z,25.00
2022-11-21T06:19:06.354Z,25.10
2022-11-21T06:21:34.568Z,25.10
2022-11-21T06:24:02.768Z,25.10
2022-11-21T06:26:30.908Z,25.00
2022-11-21T06:28:59.049Z,25.00
2022-11-21T06:31:28.468Z,25.00
2022-11-21T06:33:58.754Z,25.00
2022-11-21T06:36:27.494Z,25.00
2022-11-21T06:38:56.911Z,25.00
2022-11-21T06:41:27.288Z,25.00
2022-11-21T06:43:55.578Z,25.00
2022-11-21T06:46:23.748Z,25.00
2022-11-21T06:48:51.964Z,25.00
2022-11-21T06:51:22.259Z,25.00
2022-11-21T06:53:55.687Z,25.00
2022-11-21T06:56:28.406Z,25.00
2022-11-21T06:58:56.761Z,25.00
2022-11-21T07:01:25.724Z,25.00
2022-11-21T07:03:54.605Z,25.10
2022-11-21T07:06:23.664Z,25.20
2022-11-21T07:09:25.451Z,25.30
2022-11-21T07:11:43.999Z,25.40
2022-11-21T07:14:12.126Z,25.40
2022-11-21T07:16:40.270Z,25.40
2022-11-21T07:19:08.574Z,25.50
2022-11-21T07:21:36.832Z,25.40
2022-11-21T07:24:05.539Z,25.50
2022-11-21T07:26:33.805Z,25.60
2022-11-21T07:29:01.963Z,25.60
2022-11-21T07:31:30.164Z,25.70
2022-11-21T07:33:58.404Z,25.70
2022-11-21T07:36:26.558Z,25.70
2022-11-21T07:38:55.002Z,25.70
2022-11-21T07:41:23.134Z,25.70
2022-11-21T07:43:51.230Z,25.70
2022-11-21T07:46:19.271Z,25.70
2022-11-21T07:48:47.536Z,25.70
2022-11-21T07:51:15.582Z,25.70
2022-11-21T07:53:43.903Z,25.70
2022-11-21T07:56:12.151Z,25.70
2022-11-21T07:58:40.293Z,25.70
2022-11-21T08:01:08.929Z,25.80
2022-11-21T08:03:37.141Z,25.80
2022-11-21T08:06:05.998Z,25.90
2022-11-21T08:08:34.309Z,25.80
2022-11-21T08:11:06.520Z,25.80
2022-11-21T08:13:35.860Z,25.90
2022-11-21T08:16:05.209Z,26.10
2022-11-21T08:18:33.896Z,26.10
2022-11-21T08:21:03.182Z,26.20
2022-11-21T08:23:31.853Z,26.20
2022-11-21T08:26:00.313Z,26.30
2022-11-21T08:28:28.636Z,26.50
2022-11-21T08:30:57.021Z,26.50
2022-11-21T08:33:25.266Z,26.50
2022-11-21T08:35:53.302Z,26.50
2022-11-21T08:38:21.616Z,26.50
2022-11-21T08:40:49.724Z,26.60
2022-11-21T08:43:17.890Z,26.60
2022-11-21T08:45:46.088Z,26.80
2022-11-21T08:48:14.344Z,26.80
2022-11-21T08:50:42.446Z,26.90
2022-11-21T08:53:10.716Z,26.90
2022-11-21T08:55:38.941Z,26.90
2022-11-21T08:58:07.286Z,27.00
2022-11-21T09:00:35.480Z,27.00
2022-11-21T09:03:07.349Z,27.10
2022-11-21T09:05:35.856Z,27.20
2022-11-21T09:08:04.255Z,27.30
2022-11-21T09:10:32.392Z,27.40
2022-11-21T09:13:00.831Z,27.50
2022-11-21T09:15:29.167Z,27.60
2022-11-21T09:18:01.853Z,27.60
2022-11-21T09:20:31.135Z,27.70
2022-11-21T09:23:04.250Z,27.80
2022-11-21T09:25:32.480Z,27.80
2022-11-21T09:28:02.426Z,27.80
2022-11-21T09:30:30.722Z,28.00
2022-11-21T09:33:03.043Z,28.10
2022-11-21T09:35:31.679Z,28.10
2022-11-21T09:38:00.194Z,28.10
2022-11-21T09:40:35.593Z,28.10
2022-11-21T09:43:19.040Z,28.10
2022-11-21T09:45:48.836Z,28.00
2022-11-21T09:48:35.258Z,27.90
2022-11-21T09:51:10.767Z,27.90
2022-11-21T09:53:53.946Z,27.80
2022-11-21T09:56:23.832Z,27.80
2022-11-21T09:59:04.048Z,27.90
2022-11-21T10:01:32.572Z,27.80
2022-11-21T10:04:03.579Z,27.90
2022-11-21T10:06:41.632Z,28.10
2022-11-21T10:09:28.180Z,28.10
2022-11-21T10:12:42.782Z,28.20
2022-11-21T10:15:37.179Z,28.10
2022-11-21T10:18:26.754Z,28.10
2022-11-21T10:21:17.200Z,28.10
2022-11-21T10:24:37.767Z,28.10
2022-11-21T10:27:39.735Z,28.20
2022-11-21T10:30:18.597Z,28.20
2022-11-21T10:33:02.352Z,28.20
2022-11-21T10:35:39.743Z,28.20
2022-11-21T10:38:25.405Z,28.20
2022-11-21T10:41:07.960Z,28.40
2022-11-21T10:44:04.099Z,28.50
2022-11-21T10:46:32.230Z,28.60
2022-11-21T10:49:02.654Z,28.90
2022-11-21T10:51:44.179Z,28.90
2022-11-21T10:54:14.258Z,29.00
2022-11-21T10:56:42.482Z,29.10
2022-11-21T10:59:30.134Z,29.10
2022-11-21T11:02:19.345Z,29.20
2022-11-21T11:04:51.972Z,29.20
2022-11-21T11:07:29.049Z,29.10
2022-11-21T11:10:28.141Z,29.10
2022-11-21T11:12:57.543Z,29.20
2022-11-21T11:15:27.928Z,29.40
2022-11-21T11:17:59.721Z,29.40
2022-11-21T11:20:29.805Z,29.40
2022-11-21T11:22:57.985Z,29.40
2022-11-21T11:25:26.333Z,29.40
2022-11-21T11:27:54.465Z,29.60
2022-11-21T11:30:22.700Z,29.70
2022-11-21T11:32:51.076Z,29.80
2022-11-21T11:35:23.514Z,29.80
2022-11-21T11:38:01.939Z,29.80
2022-11-21T11:40:40.749Z,29.80
2022-11-21T11:43:24.064Z,29.60
2022-11-21T11:46:01.002Z,29.60
2022-11-21T11:48:30.278Z,29.40
2022-11-21T11:51:05.380Z,29.20
2022-11-21T11:53:44.241Z,29.10
2022-11-21T11:56:26.773Z,29.00
2022-11-21T11:59:27.780Z,29.00
2022-11-21T12:02:08.841Z,29.00
2022-11-21T12:04:58.294Z,28.80
2022-11-21T12:08:33.562Z,28.90
2022-11-21T12:10:54.682Z,29.00
2022-11-21T12:13:22.659Z,29.10
2022-11-21T12:15:59.938Z,29.40
2022-11-21T12:19:00.835Z,29.50
2022-11-21T12:21:29.707Z,29.50
2022-11-21T12:24:03.988Z,29.30
2022-11-21T12:26:53.196Z,28.90
2022-11-21T12:29:49.140Z,28.90
2022-11-21T12:32:49.648Z,28.90
2022-11-21T12:35:48.968Z,29.00
2022-11-21T12:38:44.595Z,29.20
2022-11-21T12:41:50.164Z,29.20
2022-11-21T12:44:21.534Z,29.40
2022-11-21T12:47:31.110Z,29.60
2022-11-21T12:50:23.875Z,29.70
2022-11-21T12:53:01.692Z,29.70
2022-11-21T12:55:40.770Z,29.50
2022-11-21T12:58:40.349Z,29.30
2022-11-21T13:01:46.922Z,29.10
2022-11-21T13:04:34.744Z,29.10
2022-11-21T13:07:04.464Z,29.20
2022-11-21T13:09:43.376Z,29.20
2022-11-21T13:12:45.328Z,29.40
2022-11-21T13:15:19.843Z,29.60
2022-11-21T13:18:01.412Z,29.80
2022-11-21T13:20:46.556Z,29.90
2022-11-21T13:23:36.280Z,30.00
2022-11-21T13:26:27.749Z,30.20
2022-11-21T13:29:11.545Z,30.40
2022-11-21T13:31:40.472Z,30.50
2022-11-21T13:34:35.914Z,30.60
2022-11-21T13:37:05.886Z,30.80
2022-11-21T13:39:36.433Z,30.90
2022-11-21T13:42:09.669Z,30.90
2022-11-21T13:44:40.362Z,30.90
2022-11-21T13:47:26.899Z,30.70
2022-11-21T13:50:29.720Z,30.80
2022-11-21T13:53:08.679Z,30.80
2022-11-21T13:56:04.744Z,30.70
2022-11-21T13:59:12.240Z,30.70
2022-11-21T14:02:06.340Z,31.00
2022-11-21T14:05:05.356Z,31.00
2022-11-21T14:07:42.160Z,31.10
2022-11-21T14:10:36.486Z,31.00
2022-11-21T14:13:05.466Z,31.20
2022-11-21T14:15:33.664Z,31.00
2022-11-21T14:18:02.598Z,31.00
2022-11-21T14:20:49.578Z,30.90
2022-11-21T14:23:23.231Z,31.00
2022-11-21T14:26:04.867Z,31.00
2022-11-21T14:28:35.578Z,30.80
2022-11-21T14:31:14.809Z,30.70
2022-11-21T14:33:47.580Z,30.70
2022-11-21T14:36:17.905Z,30.90
2022-11-21T14:39:13.798Z,30.80
2022-11-21T14:41:40.972Z,30.80
2022-11-21T14:44:09.215Z,30.80
2022-11-21T14:46:41.889Z,30.60
2022-11-21T14:49:23.674Z,30.40
2022-11-21T14:52:05.171Z,30.30
2022-11-21T14:55:29.015Z,29.90
2022-11-21T14:57:48.182Z,29.80
2022-11-21T15:03:23.827Z,29.90
2022-11-21T15:06:05.187Z,30.00
2022-11-21T15:09:52.834Z,30.10
2022-11-21T15:11:47.019Z,30.20
2022-11-21T15:14:30.086Z,30.30
2022-11-21T15:16:59.645Z,30.30
2022-11-21T15:19:31.782Z,30.30
2022-11-21T15:22:03.398Z,30.30
2022-11-21T15:24:36.489Z,30.50
2022-11-21T15:27:24.597Z,30.40
2022-11-21T15:30:31.966Z,30.30
2022-11-21T15:33:16.830Z,30.20
2022-11-21T15:35:49.490Z,30.30
2022-11-21T15:38:29.650Z,30.30
2022-11-21T15:41:01.993Z,30.30
2022-11-21T15:43:37.711Z,30.00
2022-11-21T15:46:17.272Z,30.00
2022-11-21T15:48:47.217Z,30.10
2022-11-21T15:51:20.364Z,30.10
2022-11-21T15:53:51.951Z,30.10
2022-11-21T15:57:15.123Z,30.20
2022-11-21T15:59:11.030Z,30.20
2022-11-21T16:01:39.294Z,30.30
2022-11-21T16:04:10.852Z,30.30
2022-11-21T16:06:39.299Z,30.30
2022-11-21T16:09:07.430Z,30.40
2022-11-21T16:11:37.857Z,30.70
2022-11-21T16:14:08.763Z,31.10
2022-11-21T16:16:43.313Z,31.30
2022-11-21T16:19:13.452Z,31.60
2022-11-21T16:21:42.269Z,31.60
2022-11-21T16:24:10.534Z,31.80
2022-11-21T16:26:38.910Z,31.90
2022-11-21T16:29:07.187Z,31.90
2022-11-21T16:31:35.666Z,32.00
2022-11-21T16:34:04.092Z,32.10
2022-11-21T16:36:33.255Z,32.30
2022-11-21T16:39:07.879Z,32.20
2022-11-21T16:41:38.464Z,32.00
2022-11-21T16:44:16.101Z,31.80
2022-11-21T16:46:47.162Z,31.50
2022-11-21T16:49:16.070Z,31.40
2022-11-21T16:51:44.204Z,31.10
2022-11-21T16:54:12.583Z,31.00
2022-11-21T16:56:40.909Z,31.10
2022-11-21T16:59:09.092Z,31.10
2022-11-21T17:01:37.459Z,30.70
2022-11-21T17:04:05.713Z,30.70
2022-11-21T17:06:34.172Z,30.70
2022-11-21T17:09:02.876Z,30.70
2022-11-21T17:11:32.133Z,30.40
2022-11-21T17:14:05.859Z,30.30
2022-11-21T17:16:35.083Z,30.40
2022-11-21T17:19:05.124Z,30.30
2022-11-21T17:21:33.793Z,30.10
2022-11-21T17:24:04.236Z,30.10
2022-11-21T17:26:32.628Z,30.00
2022-11-21T17:29:02.215Z,29.90
2022-11-21T17:31:30.848Z,29.80
2022-11-21T17:34:01.133Z,29.70
2022-11-21T17:36:30.939Z,29.60
2022-11-21T17:38:59.366Z,29.60
2022-11-21T17:41:27.948Z,29.50
2022-11-21T17:43:59.822Z,29.50
2022-11-21T17:46:28.086Z,29.50
2022-11-21T17:48:58.673Z,29.40
2022-11-21T17:51:33.167Z,29.30
2022-11-21T17:54:02.608Z,29.30
2022-11-21T17:56:32.998Z,29.20
2022-11-21T17:59:01.591Z,29.10
2022-11-21T18:01:30.891Z,29.20
2022-11-21T18:04:01.999Z,29.00
2022-11-21T18:06:38.747Z,29.00
2022-11-21T18:09:08.658Z,28.90
2022-11-21T18:11:40.253Z,28.90
2022-11-21T18:14:09.863Z,28.80
2022-11-21T18:16:39.045Z,28.70
2022-11-21T18:19:08.264Z,28.60
2022-11-21T18:21:36.415Z,28.50
2022-11-21T18:24:05.015Z,28.40
2022-11-21T18:26:36.285Z,28.40
2022-11-21T18:29:35.170Z,28.50
2022-11-21T18:31:55.476Z,28.50
2022-11-21T18:34:23.493Z,28.50
2022-11-21T18:36:51.892Z,28.40
2022-11-21T18:39:19.948Z,28.40
2022-11-21T18:41:48.495Z,28.30
2022-11-21T18:44:21.589Z,28.30
2022-11-21T18:46:51.125Z,28.40
2022-11-21T18:49:19.283Z,28.30
2022-11-21T18:51:48.508Z,28.30
2022-11-21T18:54:17.214Z,28.30
2022-11-21T18:56:45.603Z,28.30
2022-11-21T18:59:13.767Z,28.30
2022-11-21T19:01:42.364Z,28.40
2022-11-21T19:04:10.667Z,28.30
2022-11-21T19:06:39.134Z,28.20
2022-11-21T19:09:07.654Z,28.20
2022-11-21T19:11:36.118Z,28.20
2022-11-21T19:14:04.724Z,28.20
2022-11-21T19:16:34.101Z,28.20
2022-11-21T19:19:33.248Z,28.30
2022-11-21T19:21:54.696Z,28.20
2022-11-21T19:24:23.282Z,28.20
2022-11-21T19:26:51.747Z,28.30
2022-11-21T19:29:20.382Z,28.20
2022-11-21T19:31:50.352Z,28.10
2022-11-21T19:34:18.881Z,28.10
2022-11-21T19:36:47.473Z,28.10
2022-11-21T19:39:15.771Z,28.10
2022-11-21T19:41:44.269Z,28.10
2022-11-21T19:44:12.666Z,28.10
2022-11-21T19:46:41.316Z,28.10
2022-11-21T19:49:11.596Z,28.00
2022-11-21T19:51:42.025Z,28.00
2022-11-21T19:54:13.283Z,28.10
2022-11-21T19:56:41.656Z,28.10
2022-11-21T19:59:12.462Z,28.10
2022-11-21T20:01:41.252Z,28.10
2022-11-21T20:04:11.774Z,28.10
2022-11-21T20:06:42.509Z,28.00
2022-11-21T20:09:19.899Z,28.00
2022-11-21T20:11:50.524Z,28.00
2022-11-21T20:14:22.181Z,28.00
2022-11-21T20:16:52.101Z,28.10
2022-11-21T20:19:22.218Z,28.10
2022-11-21T20:21:51.253Z,28.10
2022-11-21T20:24:19.717Z,28.10
2022-11-21T20:26:48.175Z,28.10
2022-11-21T20:29:16.960Z,28.10
2022-11-21T20:31:45.601Z,28.10
2022-11-21T20:34:14.598Z,28.00
2022-11-21T20:36:43.638Z,28.00
2022-11-21T20:39:15.685Z,28.00
2022-11-21T20:41:44.649Z,28.00
2022-11-21T20:47:08.595Z,27.90
2022-11-21T20:49:37.020Z,27.90
2022-11-21T20:54:55.293Z,27.90
2022-11-21T20:57:23.802Z,27.90
2022-11-21T20:59:52.381Z,28.00
2022-11-21T21:02:20.531Z,28.00
2022-11-21T21:04:48.798Z,28.00
2022-11-21T21:07:17.245Z,28.00
2022-11-21T21:09:45.670Z,28.00
2022-11-21T21:12:13.956Z,28.00
2022-11-21T21:14:42.351Z,28.00
2022-11-21T21:17:10.491Z,28.00
2022-11-21T21:19:38.809Z,27.90
2022-11-21T21:22:07.011Z,27.90
2022-11-21T21:24:35.267Z,27.90
2022-11-21T21:27:03.462Z,27.90
2022-11-21T21:29:31.989Z,27.80
2022-11-21T21:32:00.473Z,27.80
2022-11-21T21:34:28.828Z,27.80
2022-11-21T21:36:57.258Z,27.80
2022-11-21T21:39:26.074Z,27.70
2022-11-21T21:41:54.433Z,27.70
2022-11-21T21:44:25.000Z,27.70
2022-11-21T21:46:56.869Z,27.70
2022-11-21T21:49:25.080Z,27.70
2022-11-21T21:51:53.393Z,27.70
2022-11-21T21:54:21.908Z,27.70
2022-11-21T21:56:50.873Z,27.60
2022-11-21T21:59:19.302Z,27.60
2022-11-21T22:01:47.622Z,27.60
2022-11-21T22:04:16.116Z,27.60
2022-11-21T22:06:44.487Z,27.60
2022-11-21T22:09:12.925Z,27.50
2022-11-21T22:11:41.212Z,27.50
2022-11-21T22:14:14.032Z,27.50
2022-11-21T22:16:43.514Z,27.40
2022-11-21T22:19:12.234Z,27.40
2022-11-21T22:21:40.791Z,27.40
2022-11-21T22:24:24.884Z,27.40
2022-11-21T22:26:54.154Z,27.40
2022-11-21T22:29:22.251Z,27.30
2022-11-21T22:31:50.528Z,27.30
2022-11-21T22:34:18.878Z,27.30
2022-11-21T22:36:47.339Z,27.30
2022-11-21T22:39:16.337Z,27.30
2022-11-21T22:41:44.730Z,27.20
2022-11-21T22:44:13.011Z,27.20
2022-11-21T22:46:41.359Z,27.30
2022-11-21T22:49:09.387Z,27.20
2022-11-21T22:51:37.624Z,27.20
2022-11-21T22:54:05.967Z,27.20
2022-11-21T22:56:34.285Z,27.20
2022-11-21T22:59:02.443Z,27.20
2022-11-21T23:01:32.893Z,27.20
2022-11-21T23:04:01.189Z,27.10
2022-11-21T23:06:29.557Z,27.10
2022-11-21T23:08:58.697Z,27.10
2022-11-21T23:11:37.805Z,27.10
2022-11-21T23:14:09.827Z,27.10
2022-11-21T23:16:38.650Z,27.00
2022-11-21T23:19:06.917Z,27.00
2022-11-21T23:21:35.572Z,27.00
2022-11-21T23:24:04.012Z,27.00
2022-11-21T23:26:33.633Z,27.00
2022-11-21T23:29:07.944Z,27.00
2022-11-21T23:31:37.159Z,27.00
2022-11-21T23:34:05.862Z,26.90
2022-11-21T23:36:34.314Z,26.90
2022-11-21T23:39:07.903Z,26.90
2022-11-21T23:41:40.772Z,26.90
2022-11-21T23:44:09.137Z,26.90
2022-11-21T23:46:37.445Z,26.90
2022-11-21T23:49:06.450Z,26.90
2022-11-21T23:51:34.721Z,26.90
2022-11-21T23:54:05.232Z,26.90
2022-11-21T23:56:36.762Z,26.80
2022-11-21T23:59:06.134Z,26.80
